Terminal Aerodrome Forecast
Issued by NWS Charleston, WV

Current Version | Previous Version | Text Only | Print | Product List | Glossary Off
Versions: 1 2 3 4 5 6 7 8 9 10 11 12 13 14 15 16 17 18 19 20 21 22 23 24 25 26 27 28 29

000
FTUS41 KRLX 200500 RRA
TAFCRW
TAF
KCRW 200546Z 2006/2106 00000KT 1 1/2SM BR SCT001
      TEMPO 2006/2008 1/4SM FG VV001
     FM200800 VRB03KT 5SM BR BKN035
     FM201200 00000KT 6SM SHRA BR VCTS OVC025CB
     FM201600 24006KT P6SM SHRA VCTS BKN025CB
     FM201800 25007KT P6SM VCTS BKN035CB
     FM202300 23004KT P6SM BKN050
     FM210200 00000KT 6SM BR BKN120
     FM210500 00000KT 2SM BR BKN130=

USA.gov is the U.S. government's official web portal to all federal, state and local government web resources and services.